Time;durP1;ratioP1;P1;durP2;ratioP2;P2;SDS_P1;SDS_P2;PMS_P1;PMS_P2;Temp;Humidity;BMP_temperature;BMP_pressure;BME280_temperature;BME280_humidity;BME280_pressure;Samples;Min_cycle;Max_cycle;Signal;HPM_P1;HPM_P2
2022/02/03 00:03:18;;;;;;;4.80;3.70;;;;;;;0.77;100.00;100270.03;15351949;19;20152;-48
2022/02/03 00:08:33;;;;;;;5.27;3.60;;;;;;;0.74;100.00;100281.47;15351007;19;20208;-50
2022/02/03 00:24:11;;;;;;;4.77;3.33;;;;;;;0.56;100.00;100292.44;15349496;19;20488;-50
2022/02/03 00:29:34;;;;;;;6.23;3.80;;;;;;;0.54;100.00;100299.50;15353061;19;20136;-50
2022/02/03 00:50:23;;;;;;;6.73;4.70;;;;;;;0.66;100.00;100352.56;15351801;19;20154;-48
2022/02/03 00:55:28;;;;;;;6.97;4.97;;;;;;;0.71;100.00;100347.22;15344057;19;20155;-48
2022/02/03 01:00:36;;;;;;;6.07;4.70;;;;;;;0.75;100.00;100359.38;15322414;19;20561;-48
2022/02/03 01:05:43;;;;;;;5.70;4.40;;;;;;;0.76;100.00;100363.72;15345993;19;20678;-49
2022/02/03 01:10:56;;;;;;;6.30;4.80;;;;;;;0.79;100.00;100368.91;15351610;19;20598;-46
2022/02/03 01:16:09;;;;;;;6.67;4.50;;;;;;;0.76;100.00;100390.00;15350660;19;20156;-51
2022/02/03 01:21:45;;;;;;;6.50;4.87;;;;;;;0.77;100.00;100396.97;15320185;19;20152;-45
2022/02/03 01:37:35;;;;;;;7.00;4.83;;;;;;;0.85;100.00;100400.28;15353620;19;20156;-48
2022/02/03 01:47:51;;;;;;;7.67;5.30;;;;;;;0.93;100.00;100403.59;15329158;19;21348;-49
2022/02/03 01:52:56;;;;;;;9.83;6.10;;;;;;;0.88;100.00;100400.22;15353619;19;20144;-47
2022/02/03 01:58:20;;;;;;;7.67;5.90;;;;;;;0.91;100.00;100410.66;15353257;19;20510;-51
2022/02/03 02:08:31;;;;;;;6.60;5.17;;;;;;;0.98;100.00;100411.34;15136274;19;3559126;-49
2022/02/03 02:19:26;;;;;;;6.77;5.40;;;;;;;0.99;100.00;100439.34;15353485;19;20144;-48
2022/02/03 02:46:56;;;;;;;6.73;5.50;;;;;;;1.08;100.00;100468.06;15341753;19;20166;-50
2022/02/03 02:57:17;;;;;;;8.53;6.27;;;;;;;1.07;100.00;100475.09;15341845;19;20436;-49
2022/02/03 03:02:56;;;;;;;8.03;6.07;;;;;;;1.04;100.00;100496.19;15353547;19;20768;-50
2022/02/03 03:38:48;;;;;;;11.90;7.90;;;;;;;1.06;100.00;100525.91;15325301;19;20841;-49
2022/02/03 03:44:07;;;;;;;10.33;8.20;;;;;;;1.14;100.00;100516.97;15351900;19;20160;-47
2022/02/03 03:54:14;;;;;;;13.90;9.93;;;;;;;1.16;100.00;100536.22;15344233;19;20484;-47
2022/02/03 05:04:32;;;;;;;11.70;8.70;;;;;;;1.17;100.00;100569.50;15322695;19;20452;-48
2022/02/03 05:10:02;;;;;;;9.50;8.13;;;;;;;1.17;100.00;100565.09;15335522;19;20470;-49
2022/02/03 05:15:46;;;;;;;10.13;8.70;;;;;;;1.17;100.00;100572.97;15353896;19;20148;-50
2022/02/03 05:21:46;;;;;;;11.70;8.73;;;;;;;1.12;100.00;100560.81;15348429;19;20541;-47
2022/02/03 05:44:17;;;;;;;10.63;8.50;;;;;;;1.07;100.00;100585.47;15343825;19;20930;-50
2022/02/03 05:49:52;;;;;;;11.27;8.60;;;;;;;1.08;100.00;100596.84;15321202;19;20212;-49
2022/02/03 05:55:19;;;;;;;12.80;10.00;;;;;;;1.05;100.00;100613.53;15334244;19;20164;-50
2022/02/03 06:16:31;;;;;;;12.63;9.43;;;;;;;1.24;100.00;100623.63;15331165;19;20513;-48
2022/02/03 06:21:40;;;;;;;15.90;10.60;;;;;;;1.25;100.00;100625.38;15352733;19;20155;-51
2022/02/03 06:36:57;;;;;;;13.00;10.73;;;;;;;1.32;100.00;100648.03;15170653;19;2881152;-49
2022/02/03 06:47:04;;;;;;;19.80;13.60;;;;;;;1.37;100.00;100660.16;15346660;19;20465;-47
2022/02/03 06:57:12;;;;;;;21.97;14.90;;;;;;;1.43;100.00;100667.94;15321301;19;20473;-47
2022/02/03 07:07:17;;;;;;;23.83;16.97;;;;;;;1.63;100.00;100662.22;15349112;19;20448;-49
2022/02/03 07:12:22;;;;;;;19.57;14.93;;;;;;;1.62;100.00;100663.13;15354402;19;20171;-48
2022/02/03 07:17:27;;;;;;;19.23;14.63;;;;;;;1.71;100.00;100683.09;15336547;19;20224;-49
2022/02/03 07:22:32;;;;;;;20.73;15.80;;;;;;;1.83;100.00;100671.41;15324069;19;20780;-47
2022/02/03 07:27:38;;;;;;;16.43;14.23;;;;;;;1.88;100.00;100682.72;15351929;19;20141;-47
2022/02/03 07:32:43;;;;;;;14.20;12.70;;;;;;;2.00;100.00;100690.31;15322774;19;20230;-45
2022/02/03 07:37:50;;;;;;;15.13;11.17;;;;;;;2.04;100.00;100702.53;15316119;19;20157;-48
2022/02/03 07:42:55;;;;;;;12.00;10.33;;;;;;;2.26;100.00;100719.53;15284466;19;20840;-47
2022/02/03 07:48:00;;;;;;;13.73;10.20;;;;;;;2.32;100.00;100698.31;15314692;19;20189;-49
2022/02/03 07:53:04;;;;;;;13.63;9.63;;;;;;;2.35;100.00;100702.63;15322253;19;20156;-48
2022/02/03 07:58:09;;;;;;;13.03;10.80;;;;;;;2.49;100.00;100711.94;15321481;19;20179;-50
2022/02/03 08:03:15;;;;;;;12.63;10.77;;;;;;;2.54;100.00;100710.03;15299844;19;20192;-46
2022/02/03 08:08:25;;;;;;;11.03;8.77;;;;;;;2.43;100.00;100714.72;15300214;19;20161;-47
2022/02/03 08:18:26;;;;;;;9.73;7.27;;;;;;;2.41;100.00;100708.63;15171360;19;2883416;-49
2022/02/03 08:29:16;;;;;;;7.80;7.00;;;;;;;3.30;100.00;100706.25;15296134;19;20142;-48
2022/02/03 08:34:33;;;;;;;7.10;6.30;;;;;;;3.28;100.00;100703.66;15320922;19;20169;-46
2022/02/03 08:39:49;;;;;;;7.93;7.07;;;;;;;3.30;100.00;100714.19;15325830;19;20186;-49
2022/02/03 08:44:54;;;;;;;7.83;7.03;;;;;;;3.41;100.00;100704.19;15317752;19;20155;-47
2022/02/03 08:49:58;;;;;;;6.73;6.03;;;;;;;3.65;100.00;100703.47;15293021;19;20754;-50
2022/02/03 08:55:11;;;;;;;8.67;6.53;;;;;;;3.87;100.00;100704.53;15305324;19;20166;-47
2022/02/03 09:00:37;;;;;;;6.30;5.70;;;;;;;3.77;100.00;100703.09;15324075;19;20146;-49
2022/02/03 09:58:53;;;;;;;3.63;3.17;;;;;;;4.71;100.00;100678.88;15225457;19;20189;-51
2022/02/03 10:04:10;;;;;;;4.03;3.53;;;;;;;4.81;100.00;100683.88;15252470;19;20759;-45
2022/02/03 10:09:15;;;;;;;4.30;3.53;;;;;;;4.99;100.00;100688.50;15254534;19;20144;-47
2022/02/03 10:14:20;;;;;;;5.27;4.00;;;;;;;5.15;100.00;100684.41;15252496;19;20168;-48
2022/02/03 10:19:32;;;;;;;5.23;3.80;;;;;;;5.23;100.00;100682.31;15225913;19;20285;-49
2022/02/03 10:24:38;;;;;;;4.33;3.93;;;;;;;5.18;100.00;100681.66;15239376;19;20149;-49
2022/02/03 10:29:46;;;;;;;4.33;3.93;;;;;;;5.12;100.00;100676.56;15254428;19;20164;-47
2022/02/03 10:35:00;;;;;;;5.57;4.60;;;;;;;5.07;100.00;100673.25;15250998;19;20170;-46
2022/02/03 10:40:25;;;;;;;7.03;5.60;;;;;;;5.29;100.00;100663.59;15235952;19;20227;-50
2022/02/03 10:51:05;;;;;;;5.63;4.73;;;;;;;5.44;100.00;100655.06;15251528;19;20192;-48
2022/02/03 10:56:52;;;;;;;6.50;4.73;;;;;;;5.54;100.00;100650.31;15247543;19;20333;-49
2022/02/03 11:02:13;;;;;;;5.10;4.60;;;;;;;5.85;100.00;100639.38;15243706;19;20157;-48
2022/02/03 11:07:26;;;;;;;6.00;4.83;;;;;;;6.17;100.00;100647.81;15228116;19;20148;-50
2022/02/03 11:12:32;;;;;;;5.87;4.70;;;;;;;6.21;100.00;100641.47;15247734;19;20156;-50
2022/02/03 11:17:37;;;;;;;7.17;4.60;;;;;;;6.18;100.00;100631.00;15240199;19;20177;-50
2022/02/03 11:22:52;;;;;;;5.20;3.97;;;;;;;6.21;100.00;100625.59;15251597;19;20161;-51
2022/02/03 11:28:17;;;;;;;4.83;3.97;;;;;;;6.31;100.00;100621.63;15220019;19;20148;-48
2022/02/03 11:39:12;;;;;;;8.20;6.20;;;;;;;6.29;100.00;100623.47;15244855;19;20156;-51
2022/02/03 11:56:01;;;;;;;4.50;4.10;;;;;;;6.19;100.00;100611.53;15230348;19;20145;-49
2022/02/03 12:17:43;;;;;;;9.03;5.63;;;;;;;5.31;100.00;100590.28;15224433;19;20184;-45
2022/02/03 12:23:02;;;;;;;9.87;6.87;;;;;;;5.26;100.00;100586.97;15240030;19;20232;-47
2022/02/03 12:28:17;;;;;;;6.83;6.03;;;;;;;5.20;100.00;100584.53;15238109;19;20378;-48
2022/02/03 12:38:47;;;;;;;8.13;5.97;;;;;;;5.12;100.00;100581.34;15214283;19;20490;-49
2022/02/03 12:44:00;;;;;;;7.63;6.80;;;;;;;5.08;100.00;100583.22;15240060;19;20523;-50
2022/02/03 12:49:05;;;;;;;9.57;7.33;;;;;;;5.10;100.00;100569.94;15239906;19;20153;-54
2022/02/03 12:54:15;;;;;;;8.87;7.97;;;;;;;5.25;100.00;100563.22;15227275;19;20144;-51
2022/02/03 12:59:28;;;;;;;13.07;9.00;;;;;;;5.28;100.00;100563.97;15206704;19;20157;-50
2022/02/03 13:04:34;;;;;;;10.90;9.13;;;;;;;5.20;100.00;100558.09;15244226;19;20168;-49
2022/02/03 13:09:50;;;;;;;12.90;11.17;;;;;;;5.00;100.00;100564.16;15251275;19;20157;-49
2022/02/03 13:14:58;;;;;;;13.17;10.67;;;;;;;4.95;100.00;100550.22;15247783;19;20176;-49
2022/02/03 13:20:10;;;;;;;14.43;11.00;;;;;;;5.00;100.00;100560.63;15221177;19;20248;-50
2022/02/03 13:25:20;;;;;;;15.57;12.33;;;;;;;5.18;100.00;100573.19;15237661;19;20153;-48
2022/02/03 13:30:47;;;;;;;14.63;12.17;;;;;;;5.28;100.00;100569.25;15250722;19;20149;-50
2022/02/03 13:35:56;;;;;;;16.70;12.07;;;;;;;5.26;100.00;100571.09;15246269;19;20136;-46
2022/02/03 13:41:16;;;;;;;17.40;12.07;;;;;;;5.23;100.00;100576.50;15228090;19;20145;-50
2022/02/03 13:46:31;;;;;;;14.47;11.83;;;;;;;5.12;100.00;100562.81;15236896;19;20228;-48
2022/02/03 13:51:39;;;;;;;12.37;11.10;;;;;;;5.09;100.00;100562.94;15254922;19;20144;-51
2022/02/03 14:18:59;;;;;;;17.03;14.20;;;;;;;4.40;100.00;100556.66;15249165;19;20201;-52
2022/02/03 14:29:21;;;;;;;19.60;14.20;;;;;;;4.04;100.00;100553.50;15227289;19;20223;-50
2022/02/03 14:34:29;;;;;;;18.90;15.17;;;;;;;4.04;100.00;100550.00;15248419;19;20156;-50
2022/02/03 14:44:57;;;;;;;18.67;14.33;;;;;;;3.97;100.00;100558.16;15241682;19;20521;-50
2022/02/03 14:50:04;;;;;;;19.87;15.10;;;;;;;3.95;100.00;100549.41;15220195;19;20699;-51
2022/02/03 15:00:28;;;;;;;20.23;14.10;;;;;;;3.90;100.00;100534.63;15243924;19;20179;-49
2022/02/03 15:05:35;;;;;;;20.90;14.13;;;;;;;3.88;100.00;100533.81;15235342;19;20482;-50
2022/02/03 15:10:46;;;;;;;21.20;14.33;;;;;;;3.84;100.00;100530.44;15218004;19;20162;-50
2022/02/03 15:15:51;;;;;;;19.43;12.73;;;;;;;3.85;100.00;100526.88;15216716;19;20645;-49
2022/02/03 15:20:56;;;;;;;15.43;12.40;;;;;;;3.84;100.00;100519.88;15237636;19;20243;-52
2022/02/03 15:26:01;;;;;;;18.23;13.27;;;;;;;3.87;100.00;100522.38;15233457;19;20148;-48
2022/02/03 15:31:06;;;;;;;17.17;13.30;;;;;;;3.91;100.00;100516.09;15234668;19;20184;-51
2022/02/03 15:36:13;;;;;;;20.57;14.43;;;;;;;3.89;100.00;100525.84;15209447;19;20172;-50
2022/02/03 15:41:26;;;;;;;15.40;13.77;;;;;;;3.83;100.00;100522.56;15236290;19;20505;-49
2022/02/03 15:46:34;;;;;;;20.13;14.63;;;;;;;3.74;100.00;100529.03;15237352;19;20189;-48
2022/02/03 15:57:28;;;;;;;25.03;17.50;;;;;;;3.65;100.00;100518.75;15205269;19;20164;-52
2022/02/03 16:02:57;;;;;;;22.83;16.63;;;;;;;3.63;100.00;100516.16;15224446;19;20234;-51
2022/02/03 16:18:40;;;;;;;20.73;15.53;;;;;;;3.60;100.00;100496.94;15213589;19;20152;-51
2022/02/03 16:24:00;;;;;;;17.83;14.27;;;;;;;3.62;100.00;100497.75;15219365;19;20150;-52
2022/02/03 16:50:31;;;;;;;21.83;15.03;;;;;;;3.66;100.00;100482.66;15251416;19;20143;-51
2022/02/03 16:55:38;;;;;;;18.17;14.67;;;;;;;3.63;100.00;100478.34;15245372;19;20145;-49
2022/02/03 17:00:45;;;;;;;19.73;14.77;;;;;;;3.61;100.00;100474.91;15241023;19;20506;-50
2022/02/03 17:05:51;;;;;;;20.13;15.23;;;;;;;3.63;100.00;100467.78;15215565;19;20158;-51
2022/02/03 17:10:55;;;;;;;20.73;15.07;;;;;;;3.62;100.00;100468.72;15243211;19;20159;-48
2022/02/03 17:16:00;;;;;;;21.80;15.67;;;;;;;3.69;100.00;100467.59;15241891;19;20160;-49
2022/02/03 17:21:04;;;;;;;19.40;15.87;;;;;;;3.75;100.00;100462.09;15242945;19;20705;-47
2022/02/03 17:26:14;;;;;;;22.80;16.30;;;;;;;3.80;100.00;100460.19;15215940;19;20152;-47
2022/02/03 17:31:25;;;;;;;20.57;16.00;;;;;;;3.85;100.00;100452.97;15233890;19;20506;-47
2022/02/03 18:03:18;;;;;;;24.67;17.07;;;;;;;3.88;100.00;100431.72;15251108;19;20231;-47
2022/02/03 18:08:46;;;;;;;27.30;18.70;;;;;;;3.87;100.00;100422.06;15238879;19;20246;-46
2022/02/03 18:29:56;;;;;;;25.73;16.80;;;;;;;3.68;100.00;100394.63;15235887;19;20720;-47
2022/02/03 18:35:28;;;;;;;23.03;16.60;;;;;;;3.67;100.00;100379.69;15210084;19;20926;-46
2022/02/03 18:46:32;;;;;;;22.73;15.00;;;;;;;3.60;100.00;100378.19;15236115;19;20870;-47
2022/02/03 18:51:35;;;;;;;21.70;15.20;;;;;;;3.61;100.00;100372.00;15240540;19;20168;-49
2022/02/03 18:56:46;;;;;;;27.93;15.47;;;;;;;3.60;100.00;100363.22;15209336;19;20143;-49
2022/02/03 19:02:15;;;;;;;23.93;15.20;;;;;;;3.57;100.00;100367.75;15230977;19;21030;-49
2022/02/03 19:23:35;;;;;;;20.43;14.67;;;;;;;3.25;100.00;100339.84;15221107;19;20169;-47
2022/02/03 19:28:58;;;;;;;22.07;15.27;;;;;;;3.19;100.00;100337.41;15235856;19;20158;-47
2022/02/03 20:05:51;;;;;;;40.90;26.90;;;;;;;2.29;100.00;100311.34;15239245;19;20145;-48
2022/02/03 20:10:56;;;;;;;41.20;26.07;;;;;;;2.15;100.00;100306.50;15262973;19;20157;-47
2022/02/03 20:16:00;;;;;;;40.50;26.07;;;;;;;2.04;100.00;100299.84;15267896;19;20200;-47
2022/02/03 20:21:05;;;;;;;40.80;26.37;;;;;;;2.03;100.00;100303.38;15267254;19;20682;-48
2022/02/03 20:26:13;;;;;;;43.23;25.40;;;;;;;1.98;100.00;100292.97;15244649;19;20154;-47
2022/02/03 20:31:18;;;;;;;38.10;25.60;;;;;;;1.96;100.00;100292.16;15250222;19;20156;-47
2022/02/03 20:36:23;;;;;;;41.83;25.93;;;;;;;1.95;100.00;100292.19;15265908;19;20552;-48
2022/02/03 20:41:28;;;;;;;41.50;26.30;;;;;;;1.95;100.00;100285.16;15270629;19;20145;-48
2022/02/03 20:46:33;;;;;;;33.53;23.47;;;;;;;2.00;100.00;100285.03;15256620;19;20593;-48
2022/02/03 20:51:37;;;;;;;34.37;22.13;;;;;;;2.09;100.00;100287.38;15237549;19;20158;-50
2022/02/03 20:56:43;;;;;;;31.10;20.47;;;;;;;2.18;100.00;100289.72;15265686;19;20154;-48
2022/02/03 21:01:51;;;;;;;30.10;18.00;;;;;;;2.29;100.00;100292.94;15268955;19;20145;-47
2022/02/03 21:06:56;;;;;;;28.37;18.50;;;;;;;2.37;100.00;100296.16;15268716;19;20809;-49
2022/02/03 21:12:00;;;;;;;25.13;17.00;;;;;;;2.41;100.00;100291.69;15235572;19;20141;-48
2022/02/03 21:17:05;;;;;;;29.00;16.83;;;;;;;2.39;100.00;100301.41;15250690;19;20190;-48
2022/02/03 21:22:13;;;;;;;29.43;17.87;;;;;;;2.38;100.00;100292.63;15270365;19;20169;-48
2022/02/03 21:27:20;;;;;;;25.57;17.37;;;;;;;2.37;100.00;100285.63;15282398;19;20176;-47
2022/02/03 21:32:25;;;;;;;30.87;18.73;;;;;;;2.39;100.00;100277.69;15263537;19;20145;-45
2022/02/03 21:37:31;;;;;;;25.27;17.07;;;;;;;2.40;100.00;100282.91;15254336;19;20969;-47
2022/02/03 21:42:35;;;;;;;24.17;16.60;;;;;;;2.33;100.00;100270.84;15280708;19;20147;-46
2022/02/03 21:47:40;;;;;;;27.80;17.93;;;;;;;2.36;100.00;100285.69;15278789;19;20134;-46
2022/02/03 21:52:49;;;;;;;29.27;18.43;;;;;;;2.36;100.00;100283.91;15278297;19;20940;-46
2022/02/03 21:57:55;;;;;;;31.27;17.90;;;;;;;2.35;100.00;100266.38;15246940;19;20153;-46
2022/02/03 22:03:00;;;;;;;29.03;16.90;;;;;;;2.38;100.00;100279.47;15271831;19;20152;-46
2022/02/03 22:08:04;;;;;;;29.77;17.20;;;;;;;2.39;100.00;100273.28;15276435;19;20153;-46
2022/02/03 22:13:09;;;;;;;24.80;17.27;;;;;;;2.42;100.00;100262.63;15279036;19;20599;-48
2022/02/03 22:18:16;;;;;;;27.77;17.20;;;;;;;2.47;100.00;100255.47;15248178;19;20172;-48
2022/02/03 22:23:33;;;;;;;27.90;17.23;;;;;;;2.52;100.00;100245.66;15258133;19;20170;-46
2022/02/03 22:29:06;;;;;;;27.60;18.73;;;;;;;2.64;100.00;100243.53;15278181;19;20160;-46
2022/02/03 22:39:15;;;;;;;28.23;17.10;;;;;;;2.78;100.00;100243.91;15326186;19;20454;-48
2022/02/03 22:44:28;;;;;;;28.40;19.00;;;;;;;2.81;100.00;100233.25;15315740;19;20151;-47
2022/02/03 22:49:32;;;;;;;30.23;18.27;;;;;;;2.84;100.00;100233.16;15339128;19;20146;-47
2022/02/03 22:54:37;;;;;;;27.53;17.90;;;;;;;2.85;100.00;100229.63;15342857;19;20142;-47
2022/02/03 23:04:58;;;;;;;26.27;16.50;;;;;;;2.79;100.00;100224.53;15308695;19;20327;-46
2022/02/03 23:10:15;;;;;;;24.30;14.70;;;;;;;2.71;100.00;100229.22;15332556;19;20150;-47
2022/02/03 23:15:46;;;;;;;21.13;15.43;;;;;;;2.63;100.00;100226.84;15340944;19;20172;-47
2022/02/03 23:21:14;;;;;;;25.63;15.50;;;;;;;2.65;100.00;100216.28;15342940;19;20161;-47
2022/02/03 23:26:19;;;;;;;27.93;15.83;;;;;;;2.76;100.00;100209.72;15311603;19;20814;-48
2022/02/03 23:31:25;;;;;;;26.60;15.43;;;;;;;2.91;100.00;100197.78;15325250;19;20187;-48
2022/02/03 23:36:29;;;;;;;23.27;14.87;;;;;;;3.05;100.00;100203.44;15338635;19;20174;-47
2022/02/03 23:52:28;;;;;;;20.17;13.33;;;;;;;3.38;100.00;100193.44;15253245;19;20146;-48
